createdAt,value
2022-09-01T00:00:03.860Z,15.40
2022-09-01T00:02:34.812Z,15.40
2022-09-01T00:05:04.798Z,15.30
2022-09-01T00:07:35.512Z,15.20
2022-09-01T00:10:08.559Z,15.20
2022-09-01T00:12:37.439Z,15.10
2022-09-01T00:15:06.933Z,15.10
2022-09-01T00:17:37.309Z,15.20
2022-09-01T00:20:07.097Z,15.10
2022-09-01T00:22:35.778Z,15.00
2022-09-01T00:25:05.048Z,14.90
2022-09-01T00:27:33.844Z,14.80
2022-09-01T00:30:02.540Z,14.80
2022-09-01T00:32:31.229Z,14.80
2022-09-01T00:35:01.259Z,14.70
2022-09-01T00:37:29.903Z,14.60
2022-09-01T00:39:58.871Z,14.60
2022-09-01T00:42:27.467Z,14.50
2022-09-01T00:44:56.240Z,14.50
2022-09-01T00:47:25.260Z,14.30
2022-09-01T00:49:54.887Z,14.40
2022-09-01T00:52:32.160Z,14.40
2022-09-01T00:55:06.359Z,14.20
2022-09-01T00:57:35.116Z,14.10
2022-09-01T01:00:08.267Z,14.00
2022-09-01T01:02:39.141Z,13.90
2022-09-01T01:05:09.248Z,14.00
2022-09-01T01:07:47.486Z,14.00
2022-09-01T01:10:18.582Z,14.00
2022-09-01T01:12:50.834Z,13.90
2022-09-01T01:15:20.966Z,13.80
2022-09-01T01:17:49.531Z,13.80
2022-09-01T01:20:38.469Z,13.70
2022-09-01T01:23:16.314Z,13.50
2022-09-01T01:25:49.673Z,13.40
2022-09-01T01:28:21.124Z,13.30
2022-09-01T01:30:53.116Z,13.20
2022-09-01T01:33:23.884Z,13.20
2022-09-01T01:35:56.395Z,13.20
2022-09-01T01:38:26.697Z,13.20
2022-09-01T01:40:56.963Z,13.10
2022-09-01T01:43:27.744Z,13.20
2022-09-01T01:45:59.377Z,13.20
2022-09-01T01:48:28.358Z,13.20
2022-09-01T01:50:59.856Z,13.00
2022-09-01T01:53:28.574Z,12.80
2022-09-01T01:56:00.274Z,12.70
2022-09-01T01:58:30.493Z,12.60
2022-09-01T02:00:59.296Z,12.60
2022-09-01T02:03:38.667Z,12.60
2022-09-01T02:06:09.933Z,12.70
2022-09-01T02:08:40.978Z,12.70
2022-09-01T02:11:13.363Z,12.60
2022-09-01T02:13:42.093Z,12.60
2022-09-01T02:16:13.478Z,12.60
2022-09-01T02:18:48.814Z,12.60
2022-09-01T02:21:20.572Z,12.50
2022-09-01T02:23:50.966Z,12.50
2022-09-01T02:26:23.013Z,12.40
2022-09-01T02:28:55.140Z,12.40
2022-09-01T02:31:25.054Z,12.40
2022-09-01T02:33:54.955Z,12.40
2022-09-01T02:36:25.412Z,12.40
2022-09-01T02:38:56.447Z,12.50
2022-09-01T02:41:34.781Z,12.40
2022-09-01T02:44:04.303Z,12.30
2022-09-01T02:46:32.915Z,12.40
2022-09-01T02:49:04.751Z,12.40
2022-09-01T02:51:33.493Z,12.30
2022-09-01T02:54:02.219Z,12.40
2022-09-01T02:56:32.315Z,12.30
2022-09-01T02:59:02.053Z,12.30
2022-09-01T03:01:32.693Z,12.30
2022-09-01T03:04:03.603Z,12.30
2022-09-01T03:06:34.795Z,12.40
2022-09-01T03:09:04.385Z,12.40
2022-09-01T03:11:36.326Z,12.40
2022-09-01T03:14:05.635Z,12.40
2022-09-01T03:16:34.578Z,12.40
2022-09-01T03:19:04.194Z,12.50
2022-09-01T03:21:33.195Z,12.60
2022-09-01T03:24:03.886Z,12.60
2022-09-01T03:26:34.109Z,12.60
2022-09-01T03:29:02.974Z,12.60
2022-09-01T03:31:32.326Z,12.60
2022-09-01T03:34:01.815Z,12.60
2022-09-01T03:36:33.563Z,12.60
2022-09-01T03:39:02.838Z,12.70
2022-09-01T03:41:33.435Z,12.70
2022-09-01T03:44:02.242Z,12.70
2022-09-01T03:46:36.272Z,12.70
2022-09-01T03:49:07.578Z,12.70
2022-09-01T03:51:39.322Z,12.50
2022-09-01T03:54:08.534Z,12.40
2022-09-01T03:56:42.121Z,12.10
2022-09-01T03:59:17.367Z,11.90
2022-09-01T04:01:47.353Z,11.80
2022-09-01T04:04:16.973Z,11.80
2022-09-01T04:06:47.899Z,11.60
2022-09-01T04:09:16.894Z,11.50
2022-09-01T04:11:48.610Z,11.30
2022-09-01T04:14:17.534Z,11.30
2022-09-01T04:17:05.133Z,11.40
2022-09-01T04:19:37.613Z,11.30
2022-09-01T04:22:08.211Z,11.40
2022-09-01T04:24:36.964Z,11.50
2022-09-01T04:27:07.818Z,11.60
2022-09-01T04:29:37.216Z,11.80
2022-09-01T04:32:11.383Z,11.80
2022-09-01T04:34:41.900Z,11.90
2022-09-01T04:37:13.228Z,11.90
2022-09-01T04:39:52.473Z,11.70
2022-09-01T04:42:24.371Z,11.70
2022-09-01T04:44:53.853Z,11.60
2022-09-01T04:47:35.312Z,11.50
2022-09-01T04:50:14.281Z,11.50
2022-09-01T04:52:44.212Z,11.50
2022-09-01T04:55:18.000Z,11.50
2022-09-01T04:57:50.260Z,11.60
2022-09-01T05:00:23.821Z,11.50
2022-09-01T05:02:54.874Z,11.40
2022-09-01T05:05:24.835Z,11.30
2022-09-01T05:07:55.574Z,11.20
2022-09-01T05:10:30.108Z,11.20
2022-09-01T05:13:01.625Z,11.10
2022-09-01T05:15:30.933Z,11.10
2022-09-01T05:18:02.524Z,11.30
2022-09-01T05:20:32.255Z,11.30
2022-09-01T05:23:02.074Z,11.30
2022-09-01T05:25:30.783Z,11.40
2022-09-01T05:28:02.684Z,11.50
2022-09-01T05:30:31.304Z,11.60
2022-09-01T05:32:59.922Z,11.60
2022-09-01T05:35:32.763Z,11.70
2022-09-01T05:38:02.696Z,11.70
2022-09-01T05:40:32.525Z,11.80
2022-09-01T05:43:02.884Z,11.90
2022-09-01T05:45:50.079Z,12.10
2022-09-01T05:48:21.990Z,12.20
2022-09-01T05:50:51.232Z,12.30
2022-09-01T05:53:21.924Z,12.30
2022-09-01T05:55:52.887Z,12.50
2022-09-01T05:58:23.162Z,12.50
2022-09-01T06:00:52.365Z,12.60
2022-09-01T06:03:22.733Z,12.70
2022-09-01T06:05:52.974Z,12.80
2022-09-01T06:08:24.024Z,12.80
2022-09-01T06:10:57.594Z,12.90
2022-09-01T06:13:27.763Z,13.00
2022-09-01T06:15:59.312Z,13.10
2022-09-01T06:18:28.215Z,13.20
2022-09-01T06:20:57.344Z,13.20
2022-09-01T06:23:26.016Z,13.30
2022-09-01T06:25:55.523Z,13.40
2022-09-01T06:28:24.374Z,13.60
2022-09-01T06:30:55.244Z,13.60
2022-09-01T06:33:25.925Z,13.70
2022-09-01T06:35:56.101Z,13.70
2022-09-01T06:38:27.241Z,13.80
2022-09-01T06:41:02.433Z,13.80
2022-09-01T06:43:31.994Z,13.90
2022-09-01T06:46:04.634Z,14.00
2022-09-01T06:48:33.172Z,14.10
2022-09-01T06:51:20.904Z,14.20
2022-09-01T06:53:56.769Z,14.30
2022-09-01T06:56:32.074Z,14.40
2022-09-01T06:59:06.294Z,14.60
2022-09-01T07:01:36.501Z,14.70
2022-09-01T07:04:12.735Z,14.80
2022-09-01T07:09:46.997Z,15.00
2022-09-01T07:12:27.698Z,15.20
2022-09-01T07:17:50.493Z,15.50
2022-09-01T07:20:24.757Z,15.60
2022-09-01T07:23:06.248Z,15.80
2022-09-01T07:26:02.823Z,16.00
2022-09-01T07:39:55.139Z,16.90
2022-09-01T07:42:31.639Z,16.20
2022-09-01T07:45:32.683Z,17.40
2022-09-01T07:48:03.633Z,17.50
2022-09-01T07:51:07.495Z,17.60
2022-09-01T07:53:27.110Z,17.80
2022-09-01T07:55:57.308Z,18.10
2022-09-01T07:58:27.868Z,18.30
2022-09-01T08:00:57.574Z,18.60
2022-09-01T08:03:27.624Z,19.30
2022-09-01T08:06:01.162Z,20.00
2022-09-01T08:08:29.733Z,20.40
2022-09-01T08:11:05.430Z,21.10
2022-09-01T08:13:41.220Z,21.50
2022-09-01T08:16:19.281Z,21.90
2022-09-01T08:18:49.932Z,22.60
2022-09-01T08:21:24.253Z,23.90
2022-09-01T08:23:53.341Z,25.60
2022-09-01T08:26:26.721Z,27.20
2022-09-01T08:28:56.554Z,28.50
2022-09-01T08:31:30.663Z,29.40
2022-09-01T08:34:00.337Z,29.90
2022-09-01T08:36:30.273Z,30.90
2022-09-01T08:38:58.990Z,31.40
2022-09-01T08:41:46.867Z,31.90
2022-09-01T08:44:24.146Z,32.30
2022-09-01T08:47:00.447Z,32.90
2022-09-01T08:49:29.884Z,33.40
2022-09-01T08:52:07.969Z,34.00
2022-09-01T08:54:42.176Z,34.30
2022-09-01T08:57:17.833Z,34.60
2022-09-01T08:59:46.502Z,34.90
2022-09-01T09:02:43.485Z,34.90
2022-09-01T09:05:29.702Z,35.30
2022-09-01T09:08:19.545Z,35.50
2022-09-01T09:10:59.943Z,35.70
2022-09-01T09:13:39.328Z,35.60
2022-09-01T09:16:11.442Z,34.70
2022-09-01T09:19:01.583Z,33.90
2022-09-01T09:21:35.108Z,34.10
2022-09-01T09:24:11.319Z,34.70
2022-09-01T09:26:43.218Z,33.70
2022-09-01T09:29:12.013Z,33.20
2022-09-01T09:31:49.935Z,32.90
2022-09-01T09:34:32.678Z,33.70
2022-09-01T09:37:02.831Z,35.10
2022-09-01T09:39:32.891Z,34.10
2022-09-01T09:42:09.810Z,32.00
2022-09-01T09:44:44.881Z,31.80
2022-09-01T09:47:43.657Z,32.30
2022-09-01T09:50:21.035Z,32.50
2022-09-01T09:52:50.294Z,31.00
2022-09-01T09:55:29.476Z,29.30
2022-09-01T09:58:01.386Z,27.90
2022-09-01T10:00:34.339Z,28.90
2022-09-01T10:03:08.674Z,30.40
2022-09-01T10:05:43.258Z,30.40
2022-09-01T10:08:15.072Z,30.10
2022-09-01T10:10:56.363Z,29.80
2022-09-01T10:13:29.418Z,28.90
2022-09-01T10:16:05.438Z,28.20
2022-09-01T10:18:39.693Z,28.10
2022-09-01T10:21:13.735Z,27.60
2022-09-01T10:23:43.444Z,26.80
2022-09-01T10:26:18.941Z,26.10
2022-09-01T10:28:54.061Z,27.60
2022-09-01T10:31:23.985Z,28.80
2022-09-01T10:33:58.735Z,28.10
2022-09-01T10:36:27.664Z,28.40
2022-09-01T10:39:04.602Z,28.70
2022-09-01T10:41:59.551Z,29.20
2022-09-01T10:44:34.458Z,30.00
2022-09-01T10:47:14.750Z,31.50
2022-09-01T10:50:07.493Z,31.40
2022-09-01T10:53:08.664Z,30.80
2022-09-01T10:55:47.396Z,31.10
2022-09-01T11:05:19.451Z,35.60
2022-09-01T11:08:00.525Z,35.20
2022-09-01T11:10:49.257Z,36.10
2022-09-01T11:13:38.038Z,35.10
2022-09-01T11:16:47.872Z,33.30
2022-09-01T11:19:30.672Z,31.70
2022-09-01T11:22:26.385Z,30.40
2022-09-01T11:25:40.328Z,29.50
2022-09-01T11:28:45.595Z,28.70
2022-09-01T11:31:27.991Z,28.50
2022-09-01T11:34:15.824Z,28.60
2022-09-01T11:36:54.187Z,28.30
2022-09-01T11:39:37.302Z,27.90
2022-09-01T11:42:11.444Z,27.50
2022-09-01T11:44:48.117Z,27.10
2022-09-01T11:47:20.960Z,26.70
2022-09-01T11:49:51.003Z,26.60
2022-09-01T11:52:21.463Z,26.40
2022-09-01T11:54:51.778Z,26.20
2022-09-01T11:57:29.598Z,25.80
2022-09-01T12:00:01.054Z,25.60
2022-09-01T12:02:34.034Z,26.50
2022-09-01T12:05:26.275Z,28.80
2022-09-01T12:07:55.255Z,31.20
2022-09-01T12:10:35.474Z,31.50
2022-09-01T12:13:07.023Z,31.10
2022-09-01T12:16:00.560Z,30.40
2022-09-01T12:18:33.172Z,29.80
2022-09-01T12:21:04.334Z,29.10
2022-09-01T12:23:35.724Z,28.50
2022-09-01T12:26:07.272Z,28.20
2022-09-01T12:28:41.816Z,27.90
2022-09-01T12:31:18.095Z,27.50
2022-09-01T12:33:47.870Z,26.90
2022-09-01T12:36:28.189Z,26.50
2022-09-01T12:38:58.786Z,26.20
2022-09-01T12:41:35.124Z,25.90
2022-09-01T12:44:30.476Z,25.60
2022-09-01T12:47:02.854Z,25.50
2022-09-01T12:49:50.221Z,25.60
2022-09-01T12:52:26.636Z,27.40
2022-09-01T12:55:47.413Z,29.60
2022-09-01T12:58:06.150Z,30.80
2022-09-01T13:00:36.644Z,32.40
2022-09-01T13:03:15.683Z,33.40
2022-09-01T13:05:47.274Z,34.30
2022-09-01T13:08:18.463Z,34.30
2022-09-01T13:10:49.996Z,33.00
2022-09-01T13:13:19.512Z,31.70
2022-09-01T13:15:50.438Z,30.50
2022-09-01T13:18:22.501Z,29.50
2022-09-01T13:20:53.118Z,28.70
2022-09-01T13:23:22.809Z,28.20
2022-09-01T13:25:51.700Z,27.60
2022-09-01T13:28:21.170Z,27.20
2022-09-01T13:36:52.381Z,26.90
2022-09-01T13:39:23.002Z,28.80
2022-09-01T13:41:51.763Z,30.50
2022-09-01T13:48:19.292Z,31.60
2022-09-01T13:53:39.946Z,32.60
2022-09-01T13:56:59.654Z,33.00
2022-09-01T13:59:54.710Z,33.10
2022-09-01T14:02:23.283Z,33.60
2022-09-01T14:04:52.083Z,34.00
2022-09-01T14:07:22.147Z,34.30
2022-09-01T14:09:50.766Z,34.40
2022-09-01T14:12:19.373Z,34.30
2022-09-01T14:18:57.458Z,34.60
2022-09-01T14:21:27.851Z,33.50
2022-09-01T14:23:58.536Z,32.80
2022-09-01T14:26:29.964Z,32.30
2022-09-01T14:29:02.944Z,32.40
2022-09-01T14:31:33.254Z,32.70
2022-09-01T14:34:02.255Z,32.70
2022-09-01T14:36:31.419Z,32.30
2022-09-01T14:39:02.052Z,31.30
2022-09-01T14:41:32.465Z,30.20
2022-09-01T14:44:03.541Z,29.10
2022-09-01T14:46:34.572Z,28.30
2022-09-01T14:49:04.507Z,28.50
2022-09-01T14:54:28.015Z,29.80
2022-09-01T14:59:46.203Z,30.40
2022-09-01T15:02:15.474Z,31.00
2022-09-01T15:04:44.634Z,31.10
2022-09-01T15:07:13.638Z,30.60
2022-09-01T15:09:43.940Z,29.60
2022-09-01T15:12:12.857Z,28.60
2022-09-01T15:14:41.620Z,27.70
2022-09-01T15:17:10.748Z,27.20
2022-09-01T15:19:39.631Z,27.00
2022-09-01T15:22:12.992Z,27.30
2022-09-01T15:24:43.439Z,27.80
2022-09-01T15:27:12.702Z,28.00
2022-09-01T15:29:48.337Z,28.10
2022-09-01T15:32:27.456Z,28.10
2022-09-01T15:34:57.395Z,28.20
2022-09-01T15:37:26.279Z,28.50
2022-09-01T15:39:59.934Z,28.60
2022-09-01T15:42:29.155Z,28.60
2022-09-01T15:44:58.315Z,28.80
2022-09-01T15:47:27.555Z,28.90
2022-09-01T15:49:56.342Z,28.90
2022-09-01T15:52:25.352Z,28.70
2022-09-01T15:54:53.929Z,28.60
2022-09-01T15:57:24.170Z,28.20
2022-09-01T15:59:53.173Z,27.50
2022-09-01T16:02:23.914Z,26.90
2022-09-01T16:04:52.912Z,26.50
2022-09-01T16:07:21.961Z,26.30
2022-09-01T16:09:52.734Z,26.20
2022-09-01T16:12:21.855Z,26.00
2022-09-01T16:14:53.673Z,25.90
2022-09-01T16:17:27.626Z,25.60
2022-09-01T16:20:01.441Z,25.40
2022-09-01T16:22:33.155Z,25.10
2022-09-01T16:25:05.652Z,24.80
2022-09-01T16:27:40.365Z,24.60
2022-09-01T16:30:14.588Z,24.40
2022-09-01T16:32:46.597Z,24.20
2022-09-01T16:35:16.755Z,23.90
2022-09-01T16:37:56.013Z,23.60
2022-09-01T16:40:38.084Z,23.40
2022-09-01T16:43:11.534Z,23.30
2022-09-01T16:45:52.847Z,23.10
2022-09-01T16:48:31.095Z,22.90
2022-09-01T16:51:07.054Z,22.80
2022-09-01T16:53:50.584Z,22.60
2022-09-01T16:56:26.431Z,22.60
2022-09-01T16:59:04.845Z,22.50
2022-09-01T17:01:44.294Z,22.40
2022-09-01T17:04:26.627Z,22.20
2022-09-01T17:07:04.624Z,22.10
2022-09-01T17:09:41.098Z,22.10
2022-09-01T17:12:34.624Z,22.00
2022-09-01T17:15:12.905Z,21.80
2022-09-01T17:17:50.224Z,21.70
2022-09-01T17:20:24.319Z,21.60
2022-09-01T17:22:55.477Z,21.40
2022-09-01T17:25:30.747Z,21.30
2022-09-01T17:28:06.065Z,21.20
2022-09-01T17:30:44.685Z,21.10
2022-09-01T17:33:23.488Z,21.00
2022-09-01T17:36:05.546Z,20.90
2022-09-01T17:38:45.394Z,20.80
2022-09-01T17:41:25.017Z,20.60
2022-09-01T17:44:04.284Z,20.50
2022-09-01T17:46:41.881Z,20.40
2022-09-01T17:49:20.459Z,20.30
2022-09-01T17:51:56.275Z,20.20
2022-09-01T17:54:33.282Z,20.00
2022-09-01T17:57:09.279Z,20.00
2022-09-01T17:59:48.245Z,19.90
2022-09-01T18:02:30.465Z,19.70
2022-09-01T18:05:13.605Z,19.60
2022-09-01T18:08:01.413Z,19.40
2022-09-01T18:10:35.721Z,19.30
2022-09-01T18:13:06.940Z,19.20
2022-09-01T18:15:52.085Z,19.00
2022-09-01T18:18:34.750Z,18.90
2022-09-01T18:21:10.945Z,18.70
2022-09-01T18:23:41.611Z,18.60
2022-09-01T18:26:27.393Z,18.50
2022-09-01T18:28:56.782Z,18.40
2022-09-01T18:31:52.491Z,18.30
2022-09-01T18:34:31.197Z,18.20
2022-09-01T18:41:18.279Z,18.10
2022-09-01T18:43:55.593Z,18.00
2022-09-01T18:46:32.917Z,18.00
2022-09-01T18:49:15.494Z,17.90
2022-09-01T18:51:57.585Z,17.70
2022-09-01T18:54:34.694Z,17.70
2022-09-01T18:57:07.011Z,17.50
2022-09-01T19:00:01.019Z,17.40
2022-09-01T19:02:58.092Z,17.30
2022-09-01T19:05:36.685Z,17.20
2022-09-01T19:08:17.841Z,17.20
2022-09-01T19:10:52.813Z,17.10
2022-09-01T19:13:41.272Z,17.00
2022-09-01T19:16:19.632Z,16.90
2022-09-01T19:18:56.106Z,16.90
2022-09-01T19:21:26.560Z,16.90
2022-09-01T19:24:00.718Z,16.80
2022-09-01T19:26:33.354Z,16.80
2022-09-01T19:29:09.487Z,16.80
2022-09-01T19:31:42.759Z,16.80
2022-09-01T19:34:15.324Z,16.60
2022-09-01T19:36:47.173Z,16.60
2022-09-01T19:39:18.912Z,16.50
2022-09-01T19:41:52.141Z,16.40
2022-09-01T19:44:30.110Z,16.40
2022-09-01T19:47:04.364Z,16.20
2022-09-01T19:49:41.899Z,16.00
2022-09-01T19:52:19.274Z,15.90
2022-09-01T19:54:53.707Z,15.70
2022-09-01T19:57:28.834Z,15.60
2022-09-01T20:00:06.766Z,15.60
2022-09-01T20:02:39.399Z,15.50
2022-09-01T20:05:14.795Z,15.50
2022-09-01T20:07:52.935Z,15.50
2022-09-01T20:10:39.160Z,15.50
2022-09-01T20:13:25.479Z,15.50
2022-09-01T20:16:00.598Z,15.50
2022-09-01T20:18:33.480Z,15.40
2022-09-01T20:21:07.457Z,15.40
2022-09-01T20:23:43.918Z,15.50
2022-09-01T20:26:19.275Z,15.50
2022-09-01T20:28:54.233Z,15.50
2022-09-01T20:31:28.127Z,15.60
2022-09-01T20:34:02.874Z,15.60
2022-09-01T20:36:36.753Z,15.60
2022-09-01T20:39:27.758Z,15.50
2022-09-01T20:42:01.545Z,15.40
2022-09-01T20:44:36.980Z,15.40
2022-09-01T20:47:07.903Z,15.40
2022-09-01T20:49:39.056Z,15.40
2022-09-01T20:52:17.860Z,15.30
2022-09-01T20:54:52.505Z,15.30
2022-09-01T20:57:37.564Z,15.20
2022-09-01T21:00:10.765Z,15.20
2022-09-01T21:02:44.008Z,15.20
2022-09-01T21:05:28.556Z,15.10
2022-09-01T21:08:14.656Z,15.10
2022-09-01T21:10:53.026Z,15.00
2022-09-01T21:13:36.361Z,14.90
2022-09-01T21:16:10.636Z,14.90
2022-09-01T21:18:54.183Z,14.90
2022-09-01T21:21:32.504Z,14.90
2022-09-01T21:24:01.059Z,14.80
2022-09-01T21:26:30.484Z,14.90
2022-09-01T21:29:05.184Z,14.90
2022-09-01T21:31:33.805Z,14.90
2022-09-01T21:34:03.874Z,14.80
2022-09-01T21:36:32.511Z,14.70
2022-09-01T21:39:01.046Z,14.80
2022-09-01T21:41:29.622Z,14.80
2022-09-01T21:43:58.284Z,14.70
2022-09-01T21:46:27.446Z,14.70
2022-09-01T21:48:56.973Z,14.60
2022-09-01T21:51:27.049Z,14.60
2022-09-01T21:53:55.630Z,14.60
2022-09-01T21:56:26.006Z,14.40
2022-09-01T21:58:55.634Z,14.30
2022-09-01T22:01:26.052Z,14.30
2022-09-01T22:03:54.734Z,14.30
2022-09-01T22:06:23.601Z,14.30
2022-09-01T22:08:54.403Z,14.30
2022-09-01T22:11:23.803Z,14.30
2022-09-01T22:13:52.562Z,14.20
2022-09-01T22:16:22.561Z,14.20
2022-09-01T22:18:51.194Z,14.20
2022-09-01T22:21:21.324Z,14.20
2022-09-01T22:23:49.876Z,14.10
2022-09-01T22:26:24.488Z,14.10
2022-09-01T22:28:55.154Z,14.10
2022-09-01T22:31:26.529Z,13.90
2022-09-01T22:33:55.584Z,13.90
2022-09-01T22:36:25.989Z,13.80
2022-09-01T22:38:54.703Z,13.70
2022-09-01T22:41:26.665Z,13.70
2022-09-01T22:43:56.375Z,13.70
2022-09-01T22:46:25.011Z,13.60
2022-09-01T22:48:53.846Z,13.50
2022-09-01T22:51:22.484Z,13.50
2022-09-01T22:53:51.633Z,13.50
2022-09-01T22:56:23.454Z,13.50
2022-09-01T22:58:55.945Z,13.50
2022-09-01T23:01:27.215Z,13.60
2022-09-01T23:03:59.584Z,13.50
2022-09-01T23:06:30.454Z,13.50
2022-09-01T23:08:59.982Z,13.50
2022-09-01T23:11:29.444Z,13.50
2022-09-01T23:13:59.653Z,13.40
2022-09-01T23:16:28.385Z,13.40
2022-09-01T23:18:57.182Z,13.30
2022-09-01T23:21:28.415Z,13.30
2022-09-01T23:23:58.559Z,13.40
2022-09-01T23:26:28.195Z,13.30
2022-09-01T23:28:57.444Z,13.40
2022-09-01T23:31:29.440Z,13.40
2022-09-01T23:33:58.244Z,13.40
2022-09-01T23:36:29.081Z,13.30
2022-09-01T23:38:58.261Z,13.30
2022-09-01T23:41:31.272Z,13.30
2022-09-01T23:44:01.529Z,13.20
2022-09-01T23:46:33.953Z,13.20
2022-09-01T23:49:03.503Z,13.20
2022-09-01T23:51:32.084Z,13.20
2022-09-01T23:54:00.941Z,13.20
2022-09-01T23:56:31.337Z,13.20
2022-09-01T23:59:00.462Z,13.10
